createdAt,value
2022-09-27T00:01:15.145Z,13.11
2022-09-27T00:03:42.717Z,13.10
2022-09-27T00:06:24.232Z,13.05
2022-09-27T00:08:51.715Z,13.08
2022-09-27T00:11:28.755Z,13.08
2022-09-27T00:13:57.934Z,13.07
2022-09-27T00:16:30.589Z,13.06
2022-09-27T00:19:06.577Z,13.02
2022-09-27T00:21:34.319Z,13.00
2022-09-27T00:24:02.226Z,13.00
2022-09-27T00:26:29.896Z,12.97
2022-09-27T00:28:57.538Z,13.05
2022-09-27T00:31:30.909Z,13.12
2022-09-27T00:34:02.689Z,13.15
2022-09-27T00:36:31.625Z,13.08
2022-09-27T00:39:01.291Z,13.11
2022-09-27T00:41:36.801Z,13.10
2022-09-27T00:44:26.110Z,13.13
2022-09-27T00:47:32.301Z,13.08
2022-09-27T00:50:36.838Z,13.11
2022-09-27T00:53:34.037Z,13.14
2022-09-27T00:56:10.818Z,13.15
2022-09-27T00:58:46.687Z,13.17
2022-09-27T01:01:14.507Z,13.24
2022-09-27T01:04:06.379Z,13.31
2022-09-27T01:06:34.262Z,13.25
2022-09-27T01:09:01.897Z,13.16
2022-09-27T01:11:54.390Z,13.23
2022-09-27T01:14:49.109Z,13.19
2022-09-27T01:17:34.783Z,13.17
2022-09-27T01:20:50.997Z,13.20
2022-09-27T01:24:03.198Z,13.24
2022-09-27T01:27:07.459Z,13.21
2022-09-27T01:29:58.798Z,13.24
2022-09-27T01:33:18.841Z,13.39
2022-09-27T01:36:28.867Z,13.46
2022-09-27T01:39:50.725Z,13.51
2022-09-27T01:42:48.545Z,13.40
2022-09-27T01:45:30.985Z,13.41
2022-09-27T01:48:24.012Z,13.40
2022-09-27T01:51:19.774Z,13.39
2022-09-27T01:53:56.900Z,13.32
2022-09-27T01:56:57.968Z,13.30
2022-09-27T01:59:59.456Z,13.38
2022-09-27T02:03:01.944Z,13.41
2022-09-27T02:05:52.911Z,13.40
2022-09-27T02:09:00.655Z,13.36
2022-09-27T02:11:56.407Z,13.34
2022-09-27T02:14:47.680Z,13.36
2022-09-27T02:17:58.408Z,13.39
2022-09-27T02:20:46.063Z,13.36
2022-09-27T02:23:48.884Z,13.40
2022-09-27T02:26:37.806Z,13.43
2022-09-27T02:29:21.967Z,13.46
2022-09-27T02:31:52.754Z,13.42
2022-09-27T02:34:29.633Z,13.43
2022-09-27T02:36:57.334Z,13.50
2022-09-27T02:39:25.193Z,13.47
2022-09-27T02:42:07.006Z,13.55
2022-09-27T02:44:34.993Z,13.55
2022-09-27T02:47:40.779Z,13.53
2022-09-27T02:51:01.215Z,13.50
2022-09-27T02:54:24.773Z,13.40
2022-09-27T02:57:29.949Z,13.38
2022-09-27T03:00:25.341Z,13.33
2022-09-27T03:03:46.690Z,13.38
2022-09-27T03:06:19.803Z,13.43
2022-09-27T03:08:47.855Z,13.38
2022-09-27T03:11:15.261Z,13.36
2022-09-27T03:14:06.946Z,13.35
2022-09-27T03:16:32.353Z,13.27
2022-09-27T03:19:22.695Z,13.29
2022-09-27T03:21:49.920Z,13.31
2022-09-27T03:24:17.193Z,13.35
2022-09-27T03:26:45.073Z,13.34
2022-09-27T03:29:12.419Z,13.28
2022-09-27T03:31:43.549Z,13.27
2022-09-27T03:34:39.841Z,13.29
2022-09-27T03:37:08.286Z,13.23
2022-09-27T03:39:35.550Z,13.25
2022-09-27T03:42:03.021Z,13.22
2022-09-27T03:44:30.360Z,13.20
2022-09-27T03:46:58.682Z,13.17
2022-09-27T03:49:25.960Z,13.17
2022-09-27T03:51:53.209Z,13.19
2022-09-27T03:54:20.846Z,13.19
2022-09-27T03:56:48.184Z,13.12
2022-09-27T03:59:15.763Z,13.07
2022-09-27T04:02:06.236Z,12.99
2022-09-27T04:05:09.610Z,12.94
2022-09-27T04:07:37.767Z,12.87
2022-09-27T04:10:06.393Z,12.88
2022-09-27T04:12:35.506Z,12.95
2022-09-27T04:15:02.860Z,13.03
2022-09-27T04:17:49.013Z,13.08
2022-09-27T04:20:48.812Z,13.05
2022-09-27T04:23:16.058Z,13.05
2022-09-27T04:25:50.385Z,13.04
2022-09-27T04:28:54.576Z,12.96
2022-09-27T04:31:22.999Z,12.96
2022-09-27T04:34:05.050Z,12.98
2022-09-27T04:36:35.996Z,12.95
2022-09-27T04:39:10.336Z,12.94
2022-09-27T04:41:40.814Z,12.98
2022-09-27T04:44:08.295Z,12.97
2022-09-27T04:46:35.723Z,12.97
2022-09-27T04:49:03.278Z,12.94
2022-09-27T04:51:32.764Z,12.89
2022-09-27T04:54:01.881Z,12.79
2022-09-27T04:56:32.805Z,12.72
2022-09-27T04:59:01.322Z,12.65
2022-09-27T05:01:30.352Z,12.57
2022-09-27T05:04:00.325Z,12.53
2022-09-27T05:06:29.045Z,12.46
2022-09-27T05:09:00.665Z,12.45
2022-09-27T05:11:30.574Z,12.45
2022-09-27T05:17:23.465Z,12.44
2022-09-27T05:20:10.556Z,12.42
2022-09-27T05:22:58.244Z,12.42
2022-09-27T05:25:26.677Z,12.38
2022-09-27T05:27:54.504Z,12.35
2022-09-27T05:30:21.795Z,12.33
2022-09-27T05:32:53.161Z,12.31
2022-09-27T05:35:45.701Z,12.40
2022-09-27T05:38:13.554Z,12.37
2022-09-27T05:40:44.391Z,12.31
2022-09-27T05:43:12.026Z,12.39
2022-09-27T05:45:39.527Z,12.48
2022-09-27T05:48:08.243Z,12.50
2022-09-27T05:50:43.764Z,12.53
2022-09-27T05:53:13.118Z,12.50
2022-09-27T05:55:40.960Z,12.52
2022-09-27T05:58:10.525Z,12.52
2022-09-27T06:00:44.598Z,12.50
2022-09-27T06:03:31.873Z,12.47
2022-09-27T06:06:17.471Z,12.46
2022-09-27T06:08:50.109Z,12.54
2022-09-27T06:11:19.814Z,12.49
2022-09-27T06:13:49.896Z,12.53
2022-09-27T06:16:17.514Z,12.53
2022-09-27T06:18:46.503Z,12.52
2022-09-27T06:21:13.881Z,12.52
2022-09-27T06:23:48.005Z,12.46
2022-09-27T06:26:24.557Z,12.55
2022-09-27T06:28:58.882Z,12.62
2022-09-27T06:31:26.414Z,12.66
2022-09-27T06:34:03.594Z,12.76
2022-09-27T06:36:33.236Z,12.78
2022-09-27T06:39:01.696Z,12.87
2022-09-27T06:41:39.541Z,12.92
2022-09-27T06:44:14.589Z,13.01
2022-09-27T06:47:00.410Z,13.02
2022-09-27T06:49:44.349Z,13.09
2022-09-27T06:52:11.782Z,13.15
2022-09-27T06:54:39.155Z,13.36
2022-09-27T06:57:06.348Z,13.45
2022-09-27T06:59:52.476Z,13.60
2022-09-27T07:02:40.045Z,13.89
2022-09-27T07:05:31.246Z,14.04
2022-09-27T07:08:14.110Z,14.04
2022-09-27T07:10:42.304Z,14.11
2022-09-27T07:13:11.405Z,14.09
2022-09-27T07:15:41.880Z,14.12
2022-09-27T07:18:13.345Z,14.12
2022-09-27T07:20:41.057Z,14.19
2022-09-27T07:23:10.919Z,14.16
2022-09-27T07:25:38.336Z,14.14
2022-09-27T07:28:11.645Z,14.21
2022-09-27T07:30:39.318Z,14.38
2022-09-27T07:33:08.970Z,14.60
2022-09-27T07:35:43.550Z,14.75
2022-09-27T07:38:16.422Z,14.90
2022-09-27T07:40:44.633Z,15.02
2022-09-27T07:43:12.347Z,15.13
2022-09-27T07:45:40.567Z,15.19
2022-09-27T07:48:22.724Z,15.20
2022-09-27T07:51:16.373Z,15.26
2022-09-27T07:53:46.753Z,15.34
2022-09-27T07:56:33.916Z,15.71
2022-09-27T07:59:01.852Z,15.83
2022-09-27T08:01:30.135Z,15.88
2022-09-27T08:03:58.600Z,16.00
2022-09-27T08:06:26.576Z,15.71
2022-09-27T08:08:54.927Z,15.69
2022-09-27T08:11:22.403Z,15.64
2022-09-27T08:13:52.596Z,15.74
2022-09-27T08:16:23.672Z,15.74
2022-09-27T08:19:11.139Z,15.67
2022-09-27T08:22:01.484Z,15.80
2022-09-27T08:24:34.631Z,15.90
2022-09-27T08:27:11.813Z,16.07
2022-09-27T08:29:53.958Z,16.03
2022-09-27T08:32:23.579Z,15.87
2022-09-27T08:34:51.956Z,15.84
2022-09-27T08:37:21.512Z,15.96
2022-09-27T08:39:50.195Z,15.95
2022-09-27T08:43:11.677Z,15.96
2022-09-27T08:45:59.034Z,16.01
2022-09-27T08:48:29.146Z,15.82
2022-09-27T08:50:57.945Z,15.90
2022-09-27T08:54:01.693Z,15.89
2022-09-27T08:56:29.900Z,15.92
2022-09-27T08:59:21.986Z,16.18
2022-09-27T09:01:51.814Z,16.24
2022-09-27T09:04:40.315Z,16.29
2022-09-27T09:07:59.973Z,16.40
2022-09-27T09:11:01.107Z,16.59
2022-09-27T09:14:33.689Z,16.34
2022-09-27T09:17:35.808Z,16.32
2022-09-27T09:21:18.780Z,16.46
2022-09-27T09:24:21.724Z,16.29
2022-09-27T09:27:10.908Z,16.25
2022-09-27T09:30:21.135Z,16.36
2022-09-27T09:33:23.186Z,16.44
2022-09-27T09:36:44.205Z,16.37
2022-09-27T09:39:52.628Z,16.39
2022-09-27T09:42:39.358Z,16.26
2022-09-27T09:45:42.899Z,16.26
2022-09-27T09:49:07.366Z,16.43
2022-09-27T09:51:50.377Z,16.64
2022-09-27T09:54:47.709Z,16.69
2022-09-27T09:57:53.571Z,16.76
2022-09-27T10:00:24.930Z,16.80
2022-09-27T10:02:59.444Z,16.92
2022-09-27T10:05:29.042Z,17.06
2022-09-27T10:08:08.493Z,16.93
2022-09-27T10:10:36.726Z,17.06
2022-09-27T10:13:22.815Z,17.53
2022-09-27T10:16:12.920Z,17.95
2022-09-27T10:18:47.561Z,18.08
2022-09-27T10:21:29.662Z,18.11
2022-09-27T10:24:19.110Z,17.86
2022-09-27T10:27:01.436Z,18.03
2022-09-27T10:29:37.995Z,18.12
2022-09-27T10:32:35.820Z,17.79
2022-09-27T10:35:29.342Z,18.05
2022-09-27T10:38:23.617Z,18.28
2022-09-27T10:40:59.003Z,18.60
2022-09-27T10:43:37.296Z,18.77
2022-09-27T10:46:37.921Z,19.05
2022-09-27T10:49:22.082Z,20.02
2022-09-27T10:52:07.077Z,19.87
2022-09-27T10:54:40.487Z,19.45
2022-09-27T10:57:25.245Z,19.25
2022-09-27T11:00:32.842Z,19.31
2022-09-27T11:03:15.642Z,20.30
2022-09-27T11:05:43.382Z,19.35
2022-09-27T11:08:24.013Z,21.01
2022-09-27T11:11:28.487Z,21.37
2022-09-27T11:14:02.580Z,19.67
2022-09-27T11:16:48.176Z,21.62
2022-09-27T11:19:44.388Z,20.36
2022-09-27T11:22:58.580Z,19.95
2022-09-27T11:26:07.659Z,20.89
2022-09-27T11:29:12.360Z,19.85
2022-09-27T11:32:19.614Z,19.50
2022-09-27T11:35:04.825Z,19.92
2022-09-27T11:38:53.480Z,20.22
2022-09-27T11:42:28.623Z,19.93
2022-09-27T11:45:37.024Z,20.49
2022-09-27T11:49:03.721Z,20.14
2022-09-27T11:52:14.713Z,20.16
2022-09-27T11:55:05.976Z,20.42
2022-09-27T11:57:43.697Z,20.76
2022-09-27T12:00:24.082Z,20.18
2022-09-27T12:03:42.472Z,20.39
2022-09-27T12:06:45.790Z,20.47
2022-09-27T12:09:21.141Z,20.34
2022-09-27T12:12:18.464Z,20.14
2022-09-27T12:15:06.678Z,20.13
2022-09-27T12:17:48.743Z,20.42
2022-09-27T12:20:28.054Z,20.41
2022-09-27T12:23:10.706Z,20.58
2022-09-27T12:26:06.433Z,20.59
2022-09-27T12:29:02.800Z,20.80
2022-09-27T12:31:54.470Z,20.91
2022-09-27T12:35:18.605Z,20.90
2022-09-27T12:38:11.605Z,21.12
2022-09-27T12:40:50.884Z,21.39
2022-09-27T12:43:29.351Z,21.46
2022-09-27T12:47:20.045Z,21.61
2022-09-27T12:50:40.947Z,21.88
2022-09-27T12:53:32.073Z,21.92
2022-09-27T12:56:44.427Z,21.94
2022-09-27T13:00:14.946Z,22.39
2022-09-27T13:03:25.766Z,22.57
2022-09-27T13:07:07.217Z,22.25
2022-09-27T13:10:17.583Z,22.33
2022-09-27T13:12:53.323Z,22.60
2022-09-27T13:15:33.208Z,23.59
2022-09-27T13:18:06.748Z,23.58
2022-09-27T13:20:48.142Z,23.61
2022-09-27T13:23:51.344Z,23.79
2022-09-27T13:26:36.102Z,24.00
2022-09-27T13:29:28.442Z,23.54
2022-09-27T13:31:59.987Z,23.09
2022-09-27T13:34:57.119Z,22.92
2022-09-27T13:37:48.177Z,22.90
2022-09-27T13:40:42.847Z,22.87
2022-09-27T13:43:57.622Z,22.48
2022-09-27T13:46:55.651Z,22.83
2022-09-27T13:49:37.732Z,22.64
2022-09-27T13:52:36.765Z,22.55
2022-09-27T13:55:48.731Z,22.66
2022-09-27T13:59:01.704Z,23.13
2022-09-27T14:02:09.275Z,22.79
2022-09-27T14:04:57.063Z,22.47
2022-09-27T14:07:42.712Z,22.56
2022-09-27T14:10:24.210Z,22.62
2022-09-27T14:12:54.000Z,22.95
2022-09-27T14:15:31.921Z,22.48
2022-09-27T14:18:02.439Z,22.12
2022-09-27T14:20:44.782Z,22.38
2022-09-27T14:23:31.329Z,22.11
2022-09-27T14:25:58.743Z,22.64
2022-09-27T14:28:31.514Z,22.25
2022-09-27T14:31:24.374Z,22.47
2022-09-27T14:34:21.009Z,22.85
2022-09-27T14:37:08.024Z,23.54
2022-09-27T14:39:56.726Z,23.94
2022-09-27T14:42:36.395Z,23.24
2022-09-27T14:45:40.157Z,23.01
2022-09-27T14:48:40.249Z,22.44
2022-09-27T14:51:14.107Z,22.18
2022-09-27T14:54:00.562Z,22.10
2022-09-27T14:56:37.682Z,22.15
2022-09-27T14:59:32.246Z,22.10
2022-09-27T15:02:08.738Z,22.06
2022-09-27T15:04:36.779Z,22.05
2022-09-27T15:07:05.098Z,23.55
2022-09-27T15:09:33.467Z,23.74
2022-09-27T15:12:02.390Z,24.04
2022-09-27T15:14:33.430Z,22.86
2022-09-27T15:17:05.773Z,23.11
2022-09-27T15:19:34.449Z,23.45
2022-09-27T15:22:33.148Z,24.72
2022-09-27T15:25:42.344Z,24.53
2022-09-27T15:28:17.489Z,25.22
2022-09-27T15:30:55.904Z,25.09
2022-09-27T15:33:34.176Z,25.42
2022-09-27T15:36:07.284Z,24.74
2022-09-27T15:38:47.431Z,24.73
2022-09-27T15:41:17.358Z,25.24
2022-09-27T15:43:51.023Z,24.83
2022-09-27T15:46:37.722Z,24.15
2022-09-27T15:49:17.525Z,24.32
2022-09-27T15:51:48.126Z,24.60
2022-09-27T15:54:23.588Z,24.20
2022-09-27T15:56:55.964Z,24.83
2022-09-27T15:59:29.172Z,24.93
2022-09-27T16:02:03.066Z,24.27
2022-09-27T16:04:34.198Z,24.10
2022-09-27T16:07:04.505Z,23.31
2022-09-27T16:09:31.969Z,23.91
2022-09-27T16:11:59.286Z,24.11
2022-09-27T16:14:26.481Z,23.69
2022-09-27T16:16:58.930Z,23.90
2022-09-27T16:19:26.308Z,24.17
2022-09-27T16:21:53.612Z,24.51
2022-09-27T16:24:20.908Z,24.25
2022-09-27T16:26:48.129Z,24.67
2022-09-27T16:29:16.789Z,24.90
2022-09-27T16:31:44.385Z,24.41
2022-09-27T16:34:12.848Z,22.92
2022-09-27T16:36:40.843Z,22.41
2022-09-27T16:39:13.608Z,21.97
2022-09-27T16:41:41.502Z,21.72
2022-09-27T16:44:14.331Z,21.59
2022-09-27T16:46:47.272Z,21.40
2022-09-27T16:49:33.234Z,21.18
2022-09-27T16:52:00.796Z,21.02
2022-09-27T16:54:31.625Z,20.86
2022-09-27T16:56:59.807Z,20.81
2022-09-27T16:59:27.586Z,20.70
2022-09-27T17:01:58.790Z,20.56
2022-09-27T17:04:28.043Z,20.53
2022-09-27T17:06:56.990Z,20.40
2022-09-27T17:09:25.009Z,20.22
2022-09-27T17:11:52.298Z,20.10
2022-09-27T17:14:19.835Z,19.79
2022-09-27T17:16:48.572Z,19.44
2022-09-27T17:19:16.655Z,19.29
2022-09-27T17:21:45.528Z,19.31
2022-09-27T17:24:15.276Z,19.41
2022-09-27T17:26:43.699Z,19.31
2022-09-27T17:29:13.159Z,19.09
2022-09-27T17:31:41.982Z,18.89
2022-09-27T17:34:13.150Z,18.68
2022-09-27T17:36:44.264Z,18.68
2022-09-27T17:39:16.072Z,18.75
2022-09-27T17:41:43.737Z,18.73
2022-09-27T17:44:17.633Z,18.64
2022-09-27T17:46:46.205Z,18.64
2022-09-27T17:49:32.794Z,18.69
2022-09-27T17:52:01.246Z,18.75
2022-09-27T17:54:28.409Z,18.78
2022-09-27T17:56:59.024Z,18.67
2022-09-27T17:59:26.874Z,18.65
2022-09-27T18:01:54.129Z,18.66
2022-09-27T18:04:21.392Z,18.48
2022-09-27T18:06:48.622Z,18.26
2022-09-27T18:09:18.667Z,18.06
2022-09-27T18:11:45.938Z,18.00
2022-09-27T18:14:13.404Z,17.92
2022-09-27T18:16:44.032Z,17.95
2022-09-27T18:19:16.632Z,18.03
2022-09-27T18:21:44.438Z,17.93
2022-09-27T18:24:14.053Z,17.89
2022-09-27T18:26:41.697Z,17.68
2022-09-27T18:29:16.897Z,17.75
2022-09-27T18:31:48.495Z,17.64
2022-09-27T18:34:20.158Z,17.40
2022-09-27T18:36:47.577Z,17.31
2022-09-27T18:39:21.454Z,17.33
2022-09-27T18:41:49.139Z,17.46
2022-09-27T18:44:17.791Z,17.58
2022-09-27T18:46:46.039Z,17.26
2022-09-27T18:49:14.770Z,17.02
2022-09-27T18:51:46.187Z,16.95
2022-09-27T18:54:22.341Z,16.99
2022-09-27T18:56:52.220Z,16.89
2022-09-27T18:59:21.329Z,16.80
2022-09-27T19:01:48.818Z,16.65
2022-09-27T19:04:26.780Z,16.41
2022-09-27T19:06:56.137Z,16.13
2022-09-27T19:09:26.241Z,15.93
2022-09-27T19:11:53.707Z,15.87
2022-09-27T19:14:22.571Z,15.71
2022-09-27T19:16:50.890Z,15.59
2022-09-27T19:19:20.014Z,15.74
2022-09-27T19:21:48.106Z,15.83
2022-09-27T19:24:16.210Z,15.72
2022-09-27T19:26:43.787Z,15.62
2022-09-27T19:29:11.601Z,15.60
2022-09-27T19:31:39.063Z,15.64
2022-09-27T19:34:06.323Z,15.59
2022-09-27T19:36:33.725Z,15.48
2022-09-27T19:39:02.092Z,15.25
2022-09-27T19:41:29.807Z,15.10
2022-09-27T19:43:57.600Z,15.03
2022-09-27T19:46:26.407Z,14.97
2022-09-27T19:48:56.040Z,14.95
2022-09-27T19:51:28.051Z,14.87
2022-09-27T19:53:56.652Z,14.93
2022-09-27T19:56:25.065Z,14.96
2022-09-27T19:58:52.472Z,14.97
2022-09-27T20:01:23.640Z,15.04
2022-09-27T20:03:53.422Z,14.91
2022-09-27T20:06:22.156Z,14.83
2022-09-27T20:08:51.118Z,14.78
2022-09-27T20:11:23.544Z,14.74
2022-09-27T20:13:53.164Z,14.83
2022-09-27T20:16:26.203Z,14.69
2022-09-27T20:18:57.013Z,14.68
2022-09-27T20:21:32.453Z,14.66
2022-09-27T20:24:01.831Z,14.52
2022-09-27T20:26:31.772Z,14.51
2022-09-27T20:29:01.347Z,14.48
2022-09-27T20:31:37.053Z,14.48
2022-09-27T20:34:07.509Z,14.56
2022-09-27T20:36:39.437Z,14.59
2022-09-27T20:39:10.655Z,14.55
2022-09-27T20:41:46.560Z,14.41
2022-09-27T20:44:19.380Z,14.30
2022-09-27T20:46:47.923Z,14.31
2022-09-27T20:49:19.223Z,14.29
2022-09-27T20:51:48.576Z,14.25
2022-09-27T20:54:15.785Z,14.30
2022-09-27T20:56:46.894Z,14.28
2022-09-27T20:59:21.843Z,14.14
2022-09-27T21:01:51.806Z,13.92
2022-09-27T21:04:21.442Z,13.74
2022-09-27T21:06:48.729Z,13.66
2022-09-27T21:09:19.670Z,13.58
2022-09-27T21:11:48.734Z,13.50
2022-09-27T21:14:16.468Z,13.38
2022-09-27T21:16:43.968Z,13.39
2022-09-27T21:19:11.197Z,13.36
2022-09-27T21:21:38.377Z,13.21
2022-09-27T21:24:05.780Z,13.10
2022-09-27T21:26:34.085Z,13.07
2022-09-27T21:29:08.368Z,12.95
2022-09-27T21:31:36.261Z,12.95
2022-09-27T21:34:05.406Z,12.99
2022-09-27T21:36:37.963Z,12.95
2022-09-27T21:39:09.338Z,12.90
2022-09-27T21:41:38.769Z,12.85
2022-09-27T21:44:07.244Z,12.76
2022-09-27T21:46:34.597Z,12.76
2022-09-27T21:49:02.466Z,12.79
2022-09-27T21:51:39.241Z,12.72
2022-09-27T21:54:14.225Z,12.65
2022-09-27T21:56:43.553Z,12.66
2022-09-27T21:59:15.283Z,12.66
2022-09-27T22:01:45.729Z,12.66
2022-09-27T22:04:13.371Z,12.62
2022-09-27T22:06:40.712Z,12.56
2022-09-27T22:09:16.079Z,12.62
2022-09-27T22:11:44.318Z,12.59
2022-09-27T22:14:12.957Z,12.59
2022-09-27T22:16:40.224Z,12.56
2022-09-27T22:19:09.807Z,12.51
2022-09-27T22:21:40.408Z,12.45
2022-09-27T22:24:18.655Z,12.47
2022-09-27T22:26:50.140Z,12.41
2022-09-27T22:29:17.639Z,12.39
2022-09-27T22:31:45.050Z,12.36
2022-09-27T22:34:28.548Z,12.21
2022-09-27T22:36:58.726Z,12.09
2022-09-27T22:39:26.146Z,12.02
2022-09-27T22:41:53.339Z,11.95
2022-09-27T22:44:20.663Z,11.89
2022-09-27T22:46:48.379Z,11.81
2022-09-27T22:49:15.888Z,11.77
2022-09-27T22:51:43.653Z,11.91
2022-09-27T22:54:10.856Z,11.85
2022-09-27T22:56:38.061Z,11.73
2022-09-27T22:59:05.773Z,11.76
2022-09-27T23:01:33.168Z,11.63
2022-09-27T23:04:00.574Z,11.59
2022-09-27T23:06:28.178Z,11.54
2022-09-27T23:08:58.096Z,11.48
2022-09-27T23:11:25.382Z,11.50
2022-09-27T23:13:52.866Z,11.45
2022-09-27T23:16:25.398Z,11.51
2022-09-27T23:18:55.234Z,11.64
2022-09-27T23:21:25.776Z,11.65
2022-09-27T23:23:57.618Z,11.58
2022-09-27T23:26:27.221Z,11.48
2022-09-27T23:28:57.945Z,11.43
2022-09-27T23:31:31.989Z,11.39
2022-09-27T23:34:03.428Z,11.37
2022-09-27T23:36:30.977Z,11.30
2022-09-27T23:39:01.045Z,11.27
2022-09-27T23:41:28.532Z,11.16
2022-09-27T23:43:56.267Z,11.01
2022-09-27T23:46:24.926Z,11.07
2022-09-27T23:48:53.602Z,11.21
2022-09-27T23:51:20.881Z,11.18
2022-09-27T23:53:48.261Z,11.14
2022-09-27T23:56:17.469Z,11.03
2022-09-27T23:58:46.564Z,11.07
